createdAt,value
2022-08-26T00:02:07.596Z,22.85
2022-08-26T00:04:36.231Z,22.82
2022-08-26T00:07:08.278Z,22.81
2022-08-26T00:09:40.371Z,22.79
2022-08-26T00:12:12.388Z,22.76
2022-08-26T00:14:43.662Z,22.74
2022-08-26T00:17:11.802Z,22.72
2022-08-26T00:19:39.794Z,22.69
2022-08-26T00:22:08.304Z,22.67
2022-08-26T00:24:36.362Z,22.65
2022-08-26T00:27:24.034Z,22.62
2022-08-26T00:29:53.755Z,22.61
2022-08-26T00:32:25.053Z,22.60
2022-08-26T00:34:54.232Z,22.57
2022-08-26T00:37:22.170Z,22.55
2022-08-26T00:39:50.463Z,22.53
2022-08-26T00:42:21.222Z,22.51
2022-08-26T00:44:51.083Z,22.50
2022-08-26T00:47:53.838Z,22.48
2022-08-26T00:50:40.558Z,22.45
2022-08-26T00:53:24.079Z,22.44
2022-08-26T00:56:21.412Z,22.42
2022-08-26T00:58:50.463Z,22.39
2022-08-26T01:01:18.849Z,22.38
2022-08-26T01:03:51.523Z,22.37
2022-08-26T01:06:23.649Z,22.36
2022-08-26T01:08:52.607Z,22.34
2022-08-26T01:11:21.015Z,22.33
2022-08-26T01:13:53.416Z,22.31
2022-08-26T01:16:25.817Z,22.30
2022-08-26T01:19:03.636Z,22.28
2022-08-26T01:22:00.366Z,22.27
2022-08-26T01:24:29.772Z,22.25
2022-08-26T01:27:05.255Z,22.24
2022-08-26T01:29:34.926Z,22.22
2022-08-26T01:32:05.151Z,22.21
2022-08-26T01:34:37.575Z,22.20
2022-08-26T01:37:16.076Z,22.19
2022-08-26T01:39:48.525Z,22.18
2022-08-26T01:42:19.467Z,22.18
2022-08-26T01:45:06.006Z,22.16
2022-08-26T01:47:35.833Z,22.15
2022-08-26T01:50:12.608Z,22.14
2022-08-26T01:52:49.942Z,22.13
2022-08-26T01:55:32.060Z,22.11
2022-08-26T01:58:09.915Z,22.11
2022-08-26T02:00:38.278Z,22.10
2022-08-26T02:03:17.436Z,22.09
2022-08-26T02:05:59.750Z,22.08
2022-08-26T02:08:40.714Z,22.07
2022-08-26T02:11:10.430Z,22.05
2022-08-26T02:13:55.782Z,22.04
2022-08-26T02:16:27.816Z,22.03
2022-08-26T02:19:00.158Z,22.02
2022-08-26T02:21:38.427Z,22.01
2022-08-26T02:24:17.523Z,22.00
2022-08-26T02:26:48.843Z,21.99
2022-08-26T02:29:36.307Z,21.97
2022-08-26T02:38:50.465Z,21.94
2022-08-26T02:41:20.133Z,21.93
2022-08-26T02:43:50.941Z,21.92
2022-08-26T02:46:21.478Z,21.91
2022-08-26T02:48:56.362Z,21.90
2022-08-26T02:51:24.248Z,21.88
2022-08-26T02:54:10.843Z,21.87
2022-08-26T02:56:41.470Z,21.85
2022-08-26T02:59:12.516Z,21.84
2022-08-26T03:01:41.807Z,21.82
2022-08-26T03:04:12.333Z,21.81
2022-08-26T03:06:40.687Z,21.80
2022-08-26T03:09:09.865Z,21.78
2022-08-26T03:11:42.208Z,21.76
2022-08-26T03:14:13.617Z,21.74
2022-08-26T03:16:42.880Z,21.73
2022-08-26T03:19:12.233Z,21.72
2022-08-26T03:21:44.197Z,21.70
2022-08-26T03:24:12.735Z,21.68
2022-08-26T03:26:40.995Z,21.67
2022-08-26T03:29:41.434Z,21.64
2022-08-26T03:32:09.666Z,21.64
2022-08-26T03:34:38.819Z,21.62
2022-08-26T03:37:06.870Z,21.60
2022-08-26T03:39:35.488Z,21.58
2022-08-26T03:42:06.653Z,21.56
2022-08-26T03:44:40.121Z,21.55
2022-08-26T03:47:12.023Z,21.52
2022-08-26T03:49:43.028Z,21.52
2022-08-26T03:52:11.340Z,21.50
2022-08-26T03:54:40.698Z,21.48
2022-08-26T03:57:11.500Z,21.47
2022-08-26T03:59:41.327Z,21.45
2022-08-26T04:02:11.715Z,21.44
2022-08-26T04:04:42.452Z,21.42
2022-08-26T04:07:13.037Z,21.41
2022-08-26T04:09:40.950Z,21.38
2022-08-26T04:12:10.825Z,21.36
2022-08-26T04:14:39.354Z,21.33
2022-08-26T04:17:07.409Z,21.31
2022-08-26T04:19:36.034Z,21.29
2022-08-26T04:22:05.131Z,21.26
2022-08-26T04:24:35.111Z,21.24
2022-08-26T04:27:03.709Z,21.23
2022-08-26T04:29:32.592Z,21.20
2022-08-26T04:32:00.872Z,21.18
2022-08-26T04:34:29.788Z,21.17
2022-08-26T04:37:02.840Z,21.15
2022-08-26T04:39:31.425Z,21.15
2022-08-26T04:42:01.650Z,21.15
2022-08-26T04:44:30.443Z,21.15
2022-08-26T04:46:58.867Z,21.15
2022-08-26T04:49:27.733Z,21.14
2022-08-26T04:51:55.871Z,21.15
2022-08-26T04:54:25.170Z,21.15
2022-08-26T04:56:54.343Z,21.15
2022-08-26T04:59:22.335Z,21.15
2022-08-26T05:02:00.725Z,21.15
2022-08-26T05:04:30.373Z,21.16
2022-08-26T05:07:02.430Z,21.19
2022-08-26T05:09:34.360Z,21.21
2022-08-26T05:12:02.184Z,21.24
2022-08-26T05:14:32.653Z,21.26
2022-08-26T05:17:02.932Z,21.29
2022-08-26T05:19:33.128Z,21.31
2022-08-26T05:22:01.787Z,21.35
2022-08-26T05:24:31.270Z,21.38
2022-08-26T05:26:59.150Z,21.41
2022-08-26T05:29:28.102Z,21.46
2022-08-26T05:32:04.106Z,21.50
2022-08-26T05:34:34.651Z,21.53
2022-08-26T05:37:04.891Z,21.56
2022-08-26T05:39:33.971Z,21.60
2022-08-26T05:42:08.552Z,21.63
2022-08-26T05:44:55.742Z,21.66
2022-08-26T05:47:25.732Z,21.69
2022-08-26T05:49:54.550Z,21.70
2022-08-26T05:52:24.674Z,21.71
2022-08-26T05:54:54.401Z,21.71
2022-08-26T05:57:23.101Z,21.72
2022-08-26T05:59:52.052Z,21.74
2022-08-26T06:02:21.691Z,21.76
2022-08-26T06:04:50.913Z,21.79
2022-08-26T06:13:40.455Z,21.88
2022-08-26T06:16:15.506Z,21.91
2022-08-26T06:18:48.263Z,21.95
2022-08-26T06:21:25.216Z,21.97
2022-08-26T06:24:17.998Z,22.01
2022-08-26T06:27:05.800Z,22.05
2022-08-26T06:29:36.052Z,22.10
2022-08-26T06:32:04.841Z,22.14
2022-08-26T06:34:32.973Z,22.19
2022-08-26T06:37:06.363Z,22.25
2022-08-26T06:39:34.590Z,22.31
2022-08-26T06:42:06.132Z,22.36
2022-08-26T06:44:34.585Z,22.42
2022-08-26T06:47:02.421Z,22.47
2022-08-26T06:49:35.227Z,22.54
2022-08-26T06:52:04.923Z,22.60
2022-08-26T06:54:32.843Z,22.66
2022-08-26T06:57:01.438Z,22.73
2022-08-26T06:59:31.407Z,22.80
2022-08-26T07:01:59.553Z,22.87
2022-08-26T07:04:28.183Z,22.96
2022-08-26T07:06:56.864Z,23.05
2022-08-26T07:09:30.400Z,23.15
2022-08-26T07:11:59.518Z,23.25
2022-08-26T07:14:27.330Z,23.38
2022-08-26T07:16:55.242Z,23.49
2022-08-26T07:19:30.146Z,23.61
2022-08-26T07:22:03.949Z,23.72
2022-08-26T07:24:38.534Z,23.85
2022-08-26T07:27:11.626Z,23.98
2022-08-26T07:29:41.256Z,24.10
2022-08-26T07:32:11.670Z,24.23
2022-08-26T07:34:40.370Z,24.38
2022-08-26T07:37:10.068Z,24.52
2022-08-26T07:39:40.416Z,24.67
2022-08-26T07:42:10.801Z,24.82
2022-08-26T07:44:40.535Z,25.00
2022-08-26T07:47:10.489Z,25.22
2022-08-26T07:49:56.316Z,25.53
2022-08-26T07:52:28.030Z,25.84
2022-08-26T07:54:59.042Z,26.17
2022-08-26T07:57:28.594Z,26.50
2022-08-26T07:59:57.405Z,26.86
2022-08-26T08:02:28.452Z,27.21
2022-08-26T08:04:58.588Z,27.58
2022-08-26T08:07:44.993Z,27.92
2022-08-26T08:10:21.101Z,28.29
2022-08-26T08:12:51.063Z,28.60
2022-08-26T08:15:25.193Z,28.86
2022-08-26T08:17:54.060Z,29.10
2022-08-26T08:20:27.008Z,29.33
2022-08-26T08:22:56.624Z,29.53
2022-08-26T08:25:26.720Z,29.68
2022-08-26T08:27:54.586Z,29.83
2022-08-26T08:30:23.325Z,29.97
2022-08-26T08:32:52.459Z,30.13
2022-08-26T08:35:23.564Z,30.29
2022-08-26T08:37:54.566Z,30.53
2022-08-26T08:40:26.374Z,30.81
2022-08-26T08:43:14.275Z,31.07
2022-08-26T08:46:00.074Z,31.39
2022-08-26T08:48:36.451Z,31.75
2022-08-26T08:51:39.967Z,32.11
2022-08-26T08:54:08.799Z,32.50
2022-08-26T08:56:55.203Z,32.77
2022-08-26T08:59:28.559Z,32.99
2022-08-26T09:02:19.339Z,33.21
2022-08-26T09:04:54.967Z,33.43
2022-08-26T09:07:35.885Z,33.63
2022-08-26T09:10:22.093Z,33.82
2022-08-26T09:12:52.903Z,33.98
2022-08-26T09:15:42.441Z,34.06
2022-08-26T09:18:22.213Z,34.10
2022-08-26T09:21:19.758Z,34.09
2022-08-26T09:23:49.615Z,34.13
2022-08-26T09:26:41.160Z,34.16
2022-08-26T09:32:21.355Z,34.22
2022-08-26T09:34:53.998Z,34.31
2022-08-26T09:37:38.774Z,34.34
2022-08-26T09:40:23.811Z,34.33
2022-08-26T09:43:22.673Z,34.34
2022-08-26T09:46:20.560Z,34.40
2022-08-26T09:48:48.591Z,34.47
2022-08-26T09:51:23.278Z,34.56
2022-08-26T09:54:01.451Z,34.61
2022-08-26T09:56:37.161Z,34.65
2022-08-26T09:59:10.941Z,34.75
2022-08-26T10:01:44.716Z,34.85
2022-08-26T10:04:23.607Z,34.96
2022-08-26T10:07:02.255Z,35.02
2022-08-26T10:09:36.045Z,35.04
2022-08-26T10:12:11.495Z,35.04
2022-08-26T10:14:48.273Z,35.05
2022-08-26T10:17:40.123Z,35.04
2022-08-26T10:20:23.572Z,35.01
2022-08-26T10:23:07.557Z,35.01
2022-08-26T10:25:46.572Z,35.09
2022-08-26T10:28:48.839Z,35.18
2022-08-26T10:31:28.134Z,35.23
2022-08-26T10:34:00.137Z,35.20
2022-08-26T10:37:14.547Z,35.15
2022-08-26T10:40:03.426Z,35.18
2022-08-26T10:42:47.074Z,35.17
2022-08-26T10:45:22.442Z,35.16
2022-08-26T10:48:08.698Z,35.10
2022-08-26T10:50:43.725Z,35.04
2022-08-26T10:53:25.118Z,35.02
2022-08-26T10:56:06.531Z,35.08
2022-08-26T10:59:12.298Z,35.15
2022-08-26T11:01:51.101Z,35.19
2022-08-26T11:05:06.252Z,35.20
2022-08-26T11:07:37.902Z,35.21
2022-08-26T11:10:13.113Z,35.25
2022-08-26T11:13:04.009Z,35.34
2022-08-26T11:15:32.293Z,35.45
2022-08-26T11:18:35.605Z,35.56
2022-08-26T11:21:03.842Z,35.75
2022-08-26T11:23:50.579Z,35.91
2022-08-26T11:26:35.759Z,36.06
2022-08-26T11:29:12.958Z,36.19
2022-08-26T11:31:41.558Z,36.27
2022-08-26T11:34:14.057Z,36.30
2022-08-26T11:36:54.828Z,36.33
2022-08-26T11:40:04.072Z,36.32
2022-08-26T11:42:42.754Z,36.23
2022-08-26T11:45:32.261Z,36.16
2022-08-26T11:48:21.917Z,36.04
2022-08-26T11:50:57.553Z,35.94
2022-08-26T11:53:27.149Z,35.88
2022-08-26T11:55:58.905Z,35.82
2022-08-26T11:58:28.234Z,35.75
2022-08-26T12:01:09.855Z,35.74
2022-08-26T12:03:45.623Z,35.72
2022-08-26T12:06:28.170Z,35.69
2022-08-26T12:09:00.164Z,35.67
2022-08-26T12:11:33.621Z,35.68
2022-08-26T12:14:20.785Z,35.72
2022-08-26T12:16:50.274Z,35.72
2022-08-26T12:19:33.909Z,35.69
2022-08-26T12:22:20.880Z,35.68
2022-08-26T12:24:58.567Z,35.67
2022-08-26T12:27:31.602Z,35.65
2022-08-26T12:30:14.008Z,35.61
2022-08-26T12:33:03.909Z,35.58
2022-08-26T12:35:54.363Z,35.53
2022-08-26T12:38:24.151Z,35.44
2022-08-26T12:40:52.722Z,35.35
2022-08-26T12:43:45.213Z,35.25
2022-08-26T12:46:18.313Z,35.15
2022-08-26T12:48:49.042Z,35.07
2022-08-26T12:51:29.763Z,34.99
2022-08-26T12:53:58.716Z,34.95
2022-08-26T12:56:39.617Z,34.91
2022-08-26T12:59:25.316Z,34.87
2022-08-26T13:01:56.901Z,34.84
2022-08-26T13:04:37.309Z,34.79
2022-08-26T13:07:26.614Z,34.71
2022-08-26T13:09:58.077Z,34.62
2022-08-26T13:12:25.975Z,34.54
2022-08-26T13:15:01.866Z,34.48
2022-08-26T13:17:30.980Z,34.37
2022-08-26T13:20:03.490Z,34.27
2022-08-26T13:22:32.426Z,34.16
2022-08-26T13:25:00.292Z,34.06
2022-08-26T13:27:28.084Z,33.97
2022-08-26T13:29:57.753Z,33.88
2022-08-26T13:32:27.522Z,33.78
2022-08-26T13:34:56.721Z,33.69
2022-08-26T13:37:34.452Z,33.58
2022-08-26T13:40:07.259Z,33.48
2022-08-26T13:42:35.221Z,33.41
2022-08-26T13:45:04.119Z,33.36
2022-08-26T13:47:32.442Z,33.31
2022-08-26T13:50:00.253Z,33.28
2022-08-26T13:52:30.661Z,33.25
2022-08-26T13:55:00.706Z,33.20
2022-08-26T13:57:30.547Z,33.17
2022-08-26T13:59:59.575Z,33.13
2022-08-26T14:02:28.201Z,33.06
2022-08-26T14:04:56.511Z,33.02
2022-08-26T14:07:26.335Z,32.94
2022-08-26T14:09:54.515Z,32.87
2022-08-26T14:12:22.795Z,32.82
2022-08-26T14:14:51.412Z,32.77
2022-08-26T14:17:22.254Z,32.72
2022-08-26T14:19:50.852Z,32.68
2022-08-26T14:22:22.654Z,32.63
2022-08-26T14:24:50.738Z,32.58
2022-08-26T14:27:21.237Z,32.54
2022-08-26T14:29:49.666Z,32.51
2022-08-26T14:32:57.758Z,32.44
2022-08-26T14:35:24.346Z,32.39
2022-08-26T14:37:52.829Z,32.37
2022-08-26T14:40:22.694Z,32.32
2022-08-26T14:42:54.605Z,32.26
2022-08-26T14:45:32.055Z,32.23
2022-08-26T14:48:02.918Z,32.20
2022-08-26T14:50:32.963Z,32.17
2022-08-26T14:53:19.841Z,32.14
2022-08-26T14:55:49.998Z,32.13
2022-08-26T14:58:18.025Z,32.12
2022-08-26T15:00:46.002Z,32.09
2022-08-26T15:05:48.015Z,32.03
2022-08-26T15:08:18.439Z,32.01
2022-08-26T15:10:46.853Z,32.00
2022-08-26T15:13:14.854Z,32.01
2022-08-26T15:15:46.907Z,31.99
2022-08-26T15:18:14.971Z,31.97
2022-08-26T15:20:43.170Z,31.96
2022-08-26T15:23:11.705Z,31.92
2022-08-26T15:25:44.067Z,31.90
2022-08-26T15:28:12.451Z,31.88
2022-08-26T15:30:40.348Z,31.86
2022-08-26T15:33:15.202Z,31.85
2022-08-26T15:35:44.029Z,31.84
2022-08-26T15:38:12.717Z,31.80
2022-08-26T15:40:40.820Z,31.76
2022-08-26T15:43:25.478Z,31.71
2022-08-26T15:45:56.653Z,31.64
2022-08-26T15:48:25.369Z,31.61
2022-08-26T15:50:57.802Z,31.59
2022-08-26T15:53:28.079Z,31.57
2022-08-26T15:55:57.748Z,31.54
2022-08-26T15:58:27.276Z,31.52
2022-08-26T16:00:56.701Z,31.50
2022-08-26T16:03:25.827Z,31.47
2022-08-26T16:05:54.214Z,31.44
2022-08-26T16:08:22.536Z,31.41
2022-08-26T16:10:51.581Z,31.38
2022-08-26T16:13:40.094Z,31.35
2022-08-26T16:16:08.486Z,31.30
2022-08-26T16:18:39.049Z,31.27
2022-08-26T16:21:25.762Z,31.24
2022-08-26T16:23:54.119Z,31.21
2022-08-26T16:26:28.050Z,31.17
2022-08-26T16:28:56.155Z,31.13
2022-08-26T16:31:27.700Z,31.09
2022-08-26T16:33:55.564Z,31.04
2022-08-26T16:36:24.778Z,31.00
2022-08-26T16:38:55.863Z,30.96
2022-08-26T16:41:26.380Z,30.92
2022-08-26T16:43:55.758Z,30.85
2022-08-26T16:46:26.472Z,30.81
2022-08-26T16:48:56.728Z,30.77
2022-08-26T16:51:29.592Z,30.72
2022-08-26T16:53:59.119Z,30.66
2022-08-26T16:56:34.858Z,30.60
2022-08-26T16:59:05.885Z,30.54
2022-08-26T17:01:35.218Z,30.49
2022-08-26T17:04:04.074Z,30.42
2022-08-26T17:06:31.994Z,30.35
2022-08-26T17:09:00.133Z,30.28
2022-08-26T17:11:28.398Z,30.22
2022-08-26T17:13:57.899Z,30.15
2022-08-26T17:16:27.001Z,30.09
2022-08-26T17:19:00.286Z,30.02
2022-08-26T17:21:38.542Z,29.94
2022-08-26T17:24:10.096Z,29.87
2022-08-26T17:26:39.349Z,29.78
2022-08-26T17:29:18.698Z,29.70
2022-08-26T17:31:47.783Z,29.62
2022-08-26T17:34:16.008Z,29.53
2022-08-26T17:36:44.384Z,29.44
2022-08-26T17:39:14.625Z,29.35
2022-08-26T17:41:42.788Z,29.27
2022-08-26T17:44:13.417Z,29.18
2022-08-26T17:47:13.785Z,29.06
2022-08-26T17:49:45.609Z,28.98
2022-08-26T17:52:16.701Z,28.90
2022-08-26T17:54:44.609Z,28.82
2022-08-26T17:57:53.897Z,28.73
2022-08-26T18:00:27.218Z,28.63
2022-08-26T18:02:59.598Z,28.53
2022-08-26T18:05:27.903Z,28.43
2022-08-26T18:07:56.984Z,28.35
2022-08-26T18:10:27.779Z,28.25
2022-08-26T18:12:57.491Z,28.14
2022-08-26T18:15:27.813Z,28.03
2022-08-26T18:17:58.438Z,27.91
2022-08-26T18:20:26.536Z,27.80
2022-08-26T18:22:54.551Z,27.70
2022-08-26T18:25:23.425Z,27.59
2022-08-26T18:27:55.081Z,27.49
2022-08-26T18:30:23.250Z,27.39
2022-08-26T18:32:53.573Z,27.30
2022-08-26T18:35:21.605Z,27.20
2022-08-26T18:37:49.879Z,27.10
2022-08-26T18:40:17.941Z,27.01
2022-08-26T18:42:49.373Z,26.92
2022-08-26T18:45:24.980Z,26.82
2022-08-26T18:47:58.239Z,26.73
2022-08-26T18:50:26.160Z,26.64
2022-08-26T18:52:54.384Z,26.55
2022-08-26T18:55:26.220Z,26.46
2022-08-26T18:58:03.098Z,26.36
2022-08-26T19:00:37.233Z,26.26
2022-08-26T19:03:05.891Z,26.18
2022-08-26T19:05:49.208Z,26.08
2022-08-26T19:08:17.158Z,25.99
2022-08-26T19:10:45.401Z,25.92
2022-08-26T19:13:15.934Z,25.84
2022-08-26T19:15:49.578Z,25.78
2022-08-26T19:18:19.027Z,25.70
2022-08-26T19:20:48.067Z,25.63
2022-08-26T19:23:33.183Z,25.57
2022-08-26T19:26:04.576Z,25.49
2022-08-26T19:28:35.396Z,25.43
2022-08-26T19:31:10.537Z,25.38
2022-08-26T19:33:40.336Z,25.32
2022-08-26T19:36:18.576Z,25.27
2022-08-26T19:38:47.422Z,25.22
2022-08-26T19:41:20.837Z,25.17
2022-08-26T19:43:49.314Z,25.12
2022-08-26T19:46:20.916Z,25.07
2022-08-26T19:48:55.764Z,25.02
2022-08-26T19:51:31.068Z,24.98
2022-08-26T19:54:04.422Z,24.93
2022-08-26T19:56:35.138Z,24.88
2022-08-26T19:59:03.184Z,24.84
2022-08-26T20:01:38.488Z,24.79
2022-08-26T20:04:13.063Z,24.73
2022-08-26T20:06:41.133Z,24.69
2022-08-26T20:09:12.732Z,24.64
2022-08-26T20:11:42.921Z,24.60
2022-08-26T20:14:13.516Z,24.56
2022-08-26T20:16:42.437Z,24.52
2022-08-26T20:19:36.833Z,24.47
2022-08-26T20:22:06.103Z,24.42
2022-08-26T20:24:41.941Z,24.39
2022-08-26T20:27:10.031Z,24.34
2022-08-26T20:29:39.150Z,24.29
2022-08-26T20:32:12.203Z,24.25
2022-08-26T20:34:44.203Z,24.21
2022-08-26T20:37:23.823Z,24.16
2022-08-26T20:39:55.917Z,24.11
2022-08-26T20:42:28.806Z,24.07
2022-08-26T20:44:57.704Z,24.04
2022-08-26T20:47:27.012Z,23.99
2022-08-26T20:49:59.953Z,23.95
2022-08-26T20:52:28.564Z,23.90
2022-08-26T20:54:59.972Z,23.85
2022-08-26T20:57:46.692Z,23.81
2022-08-26T21:00:18.486Z,23.77
2022-08-26T21:02:49.478Z,23.73
2022-08-26T21:05:19.022Z,23.70
2022-08-26T21:07:51.553Z,23.66
2022-08-26T21:10:21.990Z,23.62
2022-08-26T21:12:51.733Z,23.59
2022-08-26T21:15:20.338Z,23.57
2022-08-26T21:17:48.795Z,23.54
2022-08-26T21:20:19.894Z,23.49
2022-08-26T21:22:47.759Z,23.46
2022-08-26T21:25:18.676Z,23.42
2022-08-26T21:27:46.976Z,23.39
2022-08-26T21:30:17.149Z,23.35
2022-08-26T21:32:47.223Z,23.32
2022-08-26T21:35:15.741Z,23.29
2022-08-26T21:37:44.792Z,23.31
2022-08-26T21:40:13.618Z,23.30
2022-08-26T21:42:41.562Z,23.29
2022-08-26T21:45:10.281Z,23.29
2022-08-26T21:47:40.913Z,23.29
2022-08-26T21:50:10.713Z,23.29
2022-08-26T21:52:39.474Z,23.29
2022-08-26T21:55:11.756Z,23.26
2022-08-26T21:57:39.850Z,23.22
2022-08-26T22:00:13.791Z,23.20
2022-08-26T22:02:45.611Z,23.17
2022-08-26T22:05:14.704Z,23.14
2022-08-26T22:07:42.734Z,23.11
2022-08-26T22:10:11.653Z,23.09
2022-08-26T22:12:39.982Z,23.06
2022-08-26T22:15:08.964Z,23.05
2022-08-26T22:17:37.880Z,23.03
2022-08-26T22:20:16.493Z,23.01
2022-08-26T22:22:45.261Z,22.99
2022-08-26T22:25:13.557Z,22.98
2022-08-26T22:27:47.657Z,22.97
2022-08-26T22:30:18.473Z,22.94
2022-08-26T22:32:47.962Z,22.92
2022-08-26T22:35:29.025Z,22.91
2022-08-26T22:37:58.986Z,22.88
2022-08-26T22:40:29.996Z,22.86
2022-08-26T22:43:03.209Z,22.83
2022-08-26T22:45:32.778Z,22.82
2022-08-26T22:48:06.340Z,22.80
2022-08-26T22:50:34.665Z,22.79
2022-08-26T22:53:05.221Z,22.77
2022-08-26T22:55:35.580Z,22.76
2022-08-26T22:58:10.020Z,22.75
2022-08-26T23:00:39.035Z,22.74
2022-08-26T23:03:10.941Z,22.72
2022-08-26T23:05:44.297Z,22.70
2022-08-26T23:08:15.158Z,22.68
2022-08-26T23:10:47.852Z,22.65
2022-08-26T23:13:19.625Z,22.61
2022-08-26T23:15:50.137Z,22.59
2022-08-26T23:18:18.188Z,22.56
2022-08-26T23:20:51.055Z,22.53
2022-08-26T23:23:24.032Z,22.47
2022-08-26T23:25:56.615Z,22.43
2022-08-26T23:28:29.076Z,22.39
2022-08-26T23:30:57.288Z,22.35
2022-08-26T23:33:45.669Z,22.31
2022-08-26T23:36:17.825Z,22.29
2022-08-26T23:38:52.483Z,22.24
2022-08-26T23:41:24.581Z,22.19
2022-08-26T23:43:52.413Z,22.14
2022-08-26T23:46:20.698Z,22.10
2022-08-26T23:48:49.155Z,22.07
2022-08-26T23:51:35.682Z,22.03
2022-08-26T23:54:03.535Z,22.00
2022-08-26T23:56:31.647Z,21.97
2022-08-26T23:58:59.880Z,21.94
